• Join FlightAware (Why Join?)
  • Login
  • US Flag 
12:24AM EDT


 

Airport Tracker/Info


-or-


 

Live Flight TrackerFlight Track Log ✈ UAL5908 ✈ 30-Apr-2013 ✈ KIAD - KSDF

Flight Track Log - Related Links

Times and Time Zones

All times are in EDT time to prevent confusion due to time zone crossing. See the UAL5908 flight status page for this flight to view local times or setup timezone preferences in your user account.

Time Position Orientation Groundspeed Altitude Reporting Facility
EDT Latitude Longitude Course Direction KTS MPH feet Rate Location/Type
05:28PM 38.9000 -77.4667 288° West 194 223 2,600  Level Potomac TRACON
05:29PM 38.8333 -77.5167 210° Southwest 263 303 4,900 2,580 Climbing Potomac TRACON
05:30PM 38.8000 -77.6000 243° Southwest 271 312 7,900 2,640 Climbing Potomac TRACON
05:31PM 38.8000 -77.6833 270° West 280 322 10,000 1,680 Climbing Potomac TRACON
05:32PM 38.7950 -77.6958 243° Southwest 292 336 10,000  Level Washington Center
05:33PM 38.8114 -77.8294 279° West 348 400 10,000 420 Level Washington Center
05:34PM 38.8191 -78.0594 288° West  Level FlightAware Approximate
05:34PM 38.8258 -77.9472 279° West 353 406 10,900  Level Washington Center
05:35PM 38.8378 -78.0703 277° West 353 406 13,200 2,280 Climbing Washington Center
05:36PM 38.8519 -78.1933 278° West 353 406 15,600 1,920 Climbing Washington Center
05:37PM 38.8533 -78.3158 271° West 353 406 17,100 1,200 Climbing Washington Center
05:38PM 38.8525 -78.4467 270° West 353 406 18,000 360 Climbing Washington Center
05:39PM 38.8511 -78.5850 269° West 366 421 17,900 360 Descending Washington Center
05:40PM 38.8497 -78.7236 269° West 387 445 18,800 1,080 Climbing Washington Center
05:41PM 38.8481 -78.8650 269° West 393 452 20,100 1,200 Climbing Washington Center
05:42PM 38.8461 -79.0086 269° West 403 464 21,300 900 Climbing Washington Center
05:43PM 38.8419 -79.1553 268° West 409 471 22,000 300 Climbing Washington Center
05:44PM 38.8228 -79.3061 261° West 414 476 22,000  Level Washington Center
05:45PM 38.7972 -79.4539 258° West 427 491 22,000  Level Washington Center
05:46PM 38.7667 -79.6228 257° West 434 499 22,000  Level Washington Center
05:47PM 38.7408 -79.7706 257° West 434 499 22,000  Level Washington Center
05:48PM 38.7103 -79.9206 255° West 434 499 22,000  Level Washington Center
05:49PM 38.6864 -80.0600 258° West 434 499 22,000  Level Washington Center
05:49PM 38.6669 -80.1461 254° West 436 502 22,000  Level Indianapolis Center
05:50PM 38.6375 -80.2969 256° West 436 502 22,000  Level Indianapolis Center
05:51PM 38.6089 -80.4472 256° West 433 498 22,000  Level Indianapolis Center
05:52PM 38.5822 -80.5967 257° West 430 495 22,000  Level Indianapolis Center
05:53PM 38.5478 -80.7719 256° West 425 489 22,000  Level Indianapolis Center
05:54PM 38.5197 -80.9186 256° West 424 488 22,000  Level Indianapolis Center
05:55PM 38.4908 -81.0650 256° West 421 484 22,000  Level Indianapolis Center
05:56PM 38.4606 -81.2156 256° West 433 498 22,000  Level Indianapolis Center
05:57PM 38.4306 -81.3669 256° West 435 501 22,000  Level Indianapolis Center
05:58PM 38.4006 -81.5189 256° West 436 502 22,000  Level Indianapolis Center
05:59PM 38.3694 -81.6706 255° West 436 502 22,000  Level Indianapolis Center
06:01PM 38.3367 -81.8197 254° West 435 501 22,000  Level Indianapolis Center
06:02PM 38.2861 -81.9958 250° West 439 505 22,000  Level Indianapolis Center
06:03PM 38.2528 -82.1442 254° West 438 504 22,000  Level Indianapolis Center
06:04PM 38.2236 -82.2953 256° West 439 505 22,000  Level Indianapolis Center
06:05PM 38.1925 -82.4439 255° West 434 499 22,000  Level Indianapolis Center
06:06PM 38.1636 -82.5911 256° West 436 502 22,000  Level Indianapolis Center
06:07PM 38.1272 -82.7653 255° West 438 504 22,000  Level Indianapolis Center
06:08PM 38.0983 -82.9106 256° West 430 495 22,000  Level Indianapolis Center
06:09PM 38.0683 -83.0531 255° West 422 486 22,000  Level Indianapolis Center
06:10PM 38.0386 -83.1958 255° West 420 483 22,000  Level Indianapolis Center
06:11PM 38.0072 -83.3419 255° West 425 489 22,000  Level Indianapolis Center
06:12PM 37.9697 -83.5181 255° West 438 504 22,000  Level Indianapolis Center
06:13PM 37.9369 -83.6667 254° West 438 504 22,000  Level Indianapolis Center
06:14PM 37.9075 -83.8089 255° West 421 484 22,000 -180 Level Indianapolis Center
06:15PM 37.8761 -83.9539 255° West 427 491 21,700 -660 Descending Indianapolis Center
06:16PM 37.8444 -84.1006 255° West 431 496 20,700 -1,200 Descending Indianapolis Center
06:17PM 37.8075 -84.2664 254° West 421 484 19,300 -1,260 Descending Indianapolis Center
06:18PM 37.7783 -84.3981 254° West 395 455 18,100 -1,140 Descending Indianapolis Center
06:19PM 37.7536 -84.5111 255° West 344 396 17,000 -1,260 Descending Indianapolis Center
06:20PM 37.7261 -84.6333 254° West 354 407 15,500 -1,440 Descending Indianapolis Center
06:21PM 37.6983 -84.7567 254° West 365 420 14,100 -1,920 Descending Indianapolis Center
06:22PM 37.6678 -84.8992 255° West 362 417 11,600 -1,680 Descending Indianapolis Center
06:23PM 37.6969 -85.0131 288° West 352 405 10,600 -780 Descending Indianapolis Center
06:24PM 37.7614 -85.1036 312° West 348 400 10,000 -300 Descending Indianapolis Center
06:25PM 37.8278 -85.1944 313° West 349 402 10,000 -540 Level Indianapolis Center
06:26PM 37.8881 -85.2789 312° West 300 345 8,900 -1,200 Descending Indianapolis Center
06:27PM 37.9442 -85.3528 314° West 291 335 7,600 -960 Descending Indianapolis Center
06:28PM 37.9953 -85.4264 311° West 282 325 7,000 -300 Descending Indianapolis Center
06:29PM 38.0483 -85.5008 312° West 283 326 7,000 -240 Level Indianapolis Center
06:31PM 38.1017 -85.5758 312° West 285 328 6,600 -540 Descending Indianapolis Center
06:32PM 38.1747 -85.6092 340° North 286 329 6,000 -300 Descending Indianapolis Center
06:33PM 38.2606 -85.6461 341° North 273 314 6,000 -660 Level Indianapolis Center
06:34PM 38.3300 -85.6789 340° North 270 311 4,700 -1,020 Descending Indianapolis Center
06:35PM 38.3706 -85.7331 314° West 259 298 4,000 -660 Descending Indianapolis Center
06:36PM 38.3314 -85.7819 224° Southwest 231 266 3,400 -720 Descending Indianapolis Center
06:37PM 38.2719 -85.7608 164° South 218 251 2,600 -780 Descending Indianapolis Center